sensor_id;sensor_type;location;lat;lon;timestamp;temperature;humidity
39189;DHT22;24915;50.858;4.376;2022-09-01T00:02:14;20.30;86.50
39189;DHT22;24915;50.858;4.376;2022-09-01T00:04:42;20.30;86.10
39189;DHT22;24915;50.858;4.376;2022-09-01T00:07:10;20.30;85.90
39189;DHT22;24915;50.858;4.376;2022-09-01T00:09:37;20.30;86.30
39189;DHT22;24915;50.858;4.376;2022-09-01T00:12:04;20.30;85.70
39189;DHT22;24915;50.858;4.376;2022-09-01T00:14:34;20.30;85.50
39189;DHT22;24915;50.858;4.376;2022-09-01T00:17:03;20.20;85.90
39189;DHT22;24915;50.858;4.376;2022-09-01T00:19:30;20.20;85.90
39189;DHT22;24915;50.858;4.376;2022-09-01T00:21:58;20.10;85.80
39189;DHT22;24915;50.858;4.376;2022-09-01T00:24:25;20.10;86.00
39189;DHT22;24915;50.858;4.376;2022-09-01T00:26:51;20.10;85.80
39189;DHT22;24915;50.858;4.376;2022-09-01T00:29:17;20.10;86.10
39189;DHT22;24915;50.858;4.376;2022-09-01T00:31:43;20.10;86.00
39189;DHT22;24915;50.858;4.376;2022-09-01T00:34:09;20.10;85.90
39189;DHT22;24915;50.858;4.376;2022-09-01T00:36:35;20.10;86.00
39189;DHT22;24915;50.858;4.376;2022-09-01T00:39:00;20.10;86.00
39189;DHT22;24915;50.858;4.376;2022-09-01T00:41:28;20.10;86.00
39189;DHT22;24915;50.858;4.376;2022-09-01T00:43:57;20.00;86.00
39189;DHT22;24915;50.858;4.376;2022-09-01T00:46:31;20.10;86.30
39189;DHT22;24915;50.858;4.376;2022-09-01T00:49:10;20.00;85.90
39189;DHT22;24915;50.858;4.376;2022-09-01T00:51:37;20.00;86.00
39189;DHT22;24915;50.858;4.376;2022-09-01T00:54:06;20.00;85.90
39189;DHT22;24915;50.858;4.376;2022-09-01T00:56:34;20.00;86.20
39189;DHT22;24915;50.858;4.376;2022-09-01T00:59:04;20.00;86.50
39189;DHT22;24915;50.858;4.376;2022-09-01T01:01:31;20.00;85.90
39189;DHT22;24915;50.858;4.376;2022-09-01T01:03:59;20.00;86.00
39189;DHT22;24915;50.858;4.376;2022-09-01T01:06:26;20.00;86.20
39189;DHT22;24915;50.858;4.376;2022-09-01T01:08:56;20.00;86.30
39189;DHT22;24915;50.858;4.376;2022-09-01T01:11:30;19.90;86.20
39189;DHT22;24915;50.858;4.376;2022-09-01T01:14:08;19.90;86.20
39189;DHT22;24915;50.858;4.376;2022-09-01T01:16:38;19.90;86.40
39189;DHT22;24915;50.858;4.376;2022-09-01T01:19:35;19.80;86.60
39189;DHT22;24915;50.858;4.376;2022-09-01T01:25:28;19.80;86.50
39189;DHT22;24915;50.858;4.376;2022-09-01T01:30:51;19.80;86.50
39189;DHT22;24915;50.858;4.376;2022-09-01T01:33:19;19.80;86.50
39189;DHT22;24915;50.858;4.376;2022-09-01T01:35:47;19.90;86.40
39189;DHT22;24915;50.858;4.376;2022-09-01T01:38:13;19.80;86.60
39189;DHT22;24915;50.858;4.376;2022-09-01T01:40:39;19.70;86.60
39189;DHT22;24915;50.858;4.376;2022-09-01T01:43:06;19.70;86.80
39189;DHT22;24915;50.858;4.376;2022-09-01T01:45:32;19.60;86.90
39189;DHT22;24915;50.858;4.376;2022-09-01T01:47:58;19.60;87.10
39189;DHT22;24915;50.858;4.376;2022-09-01T01:50:32;19.60;87.10
39189;DHT22;24915;50.858;4.376;2022-09-01T01:53:02;19.60;87.10
39189;DHT22;24915;50.858;4.376;2022-09-01T01:55:30;19.50;87.30
39189;DHT22;24915;50.858;4.376;2022-09-01T01:57:57;19.50;87.00
39189;DHT22;24915;50.858;4.376;2022-09-01T02:00:26;19.50;87.10
39189;DHT22;24915;50.858;4.376;2022-09-01T02:02:53;19.50;86.80
39189;DHT22;24915;50.858;4.376;2022-09-01T02:05:29;19.40;86.90
39189;DHT22;24915;50.858;4.376;2022-09-01T02:08:03;19.40;87.00
39189;DHT22;24915;50.858;4.376;2022-09-01T02:10:35;19.40;87.00
39189;DHT22;24915;50.858;4.376;2022-09-01T02:13:04;19.40;86.80
39189;DHT22;24915;50.858;4.376;2022-09-01T02:15:47;19.40;86.90
39189;DHT22;24915;50.858;4.376;2022-09-01T02:18:17;19.30;86.80
39189;DHT22;24915;50.858;4.376;2022-09-01T02:20:45;19.30;86.60
39189;DHT22;24915;50.858;4.376;2022-09-01T02:23:12;19.40;86.60
39189;DHT22;24915;50.858;4.376;2022-09-01T02:25:43;19.40;86.50
39189;DHT22;24915;50.858;4.376;2022-09-01T02:28:13;19.40;86.50
39189;DHT22;24915;50.858;4.376;2022-09-01T02:30:47;19.40;86.20
39189;DHT22;24915;50.858;4.376;2022-09-01T02:33:18;19.40;86.30
39189;DHT22;24915;50.858;4.376;2022-09-01T02:35:49;19.40;86.20
39189;DHT22;24915;50.858;4.376;2022-09-01T02:38:15;19.40;85.90
39189;DHT22;24915;50.858;4.376;2022-09-01T02:40:45;19.40;86.10
39189;DHT22;24915;50.858;4.376;2022-09-01T02:43:13;19.40;86.00
39189;DHT22;24915;50.858;4.376;2022-09-01T02:45:40;19.30;86.10
39189;DHT22;24915;50.858;4.376;2022-09-01T02:48:09;19.30;85.90
39189;DHT22;24915;50.858;4.376;2022-09-01T02:50:36;19.30;85.90
39189;DHT22;24915;50.858;4.376;2022-09-01T02:53:03;19.30;86.00
39189;DHT22;24915;50.858;4.376;2022-09-01T02:55:40;19.30;85.80
39189;DHT22;24915;50.858;4.376;2022-09-01T02:58:06;19.20;86.00
39189;DHT22;24915;50.858;4.376;2022-09-01T03:00:35;19.20;86.00
39189;DHT22;24915;50.858;4.376;2022-09-01T03:03:05;19.30;85.90
39189;DHT22;24915;50.858;4.376;2022-09-01T03:05:33;19.20;85.70
39189;DHT22;24915;50.858;4.376;2022-09-01T03:08:05;19.20;85.90
39189;DHT22;24915;50.858;4.376;2022-09-01T03:10:36;19.20;85.50
39189;DHT22;24915;50.858;4.376;2022-09-01T03:13:13;19.20;85.30
39189;DHT22;24915;50.858;4.376;2022-09-01T03:15:40;19.20;85.30
39189;DHT22;24915;50.858;4.376;2022-09-01T03:18:07;19.20;85.50
39189;DHT22;24915;50.858;4.376;2022-09-01T03:20:36;19.20;85.80
39189;DHT22;24915;50.858;4.376;2022-09-01T03:23:04;19.10;85.30
39189;DHT22;24915;50.858;4.376;2022-09-01T03:25:33;19.20;85.60
39189;DHT22;24915;50.858;4.376;2022-09-01T03:27:59;19.10;85.50
39189;DHT22;24915;50.858;4.376;2022-09-01T03:30:30;19.00;85.70
39189;DHT22;24915;50.858;4.376;2022-09-01T03:32:57;19.00;85.60
39189;DHT22;24915;50.858;4.376;2022-09-01T03:35:24;19.00;85.80
39189;DHT22;24915;50.858;4.376;2022-09-01T03:37:51;18.90;85.70
39189;DHT22;24915;50.858;4.376;2022-09-01T03:40:17;18.90;86.00
39189;DHT22;24915;50.858;4.376;2022-09-01T03:42:44;18.90;86.00
39189;DHT22;24915;50.858;4.376;2022-09-01T03:45:11;18.90;85.70
39189;DHT22;24915;50.858;4.376;2022-09-01T03:47:41;18.80;86.00
39189;DHT22;24915;50.858;4.376;2022-09-01T03:50:10;18.80;86.20
39189;DHT22;24915;50.858;4.376;2022-09-01T03:52:46;18.80;86.20
39189;DHT22;24915;50.858;4.376;2022-09-01T03:55:17;18.70;86.20
39189;DHT22;24915;50.858;4.376;2022-09-01T03:57:52;18.70;85.90
39189;DHT22;24915;50.858;4.376;2022-09-01T04:00:19;18.60;86.10
39189;DHT22;24915;50.858;4.376;2022-09-01T04:02:49;18.50;87.10
39189;DHT22;24915;50.858;4.376;2022-09-01T04:05:19;18.50;86.80
39189;DHT22;24915;50.858;4.376;2022-09-01T04:07:57;18.50;86.90
39189;DHT22;24915;50.858;4.376;2022-09-01T04:10:26;18.50;87.10
39189;DHT22;24915;50.858;4.376;2022-09-01T04:12:52;18.40;86.90
39189;DHT22;24915;50.858;4.376;2022-09-01T04:15:21;18.50;86.90
39189;DHT22;24915;50.858;4.376;2022-09-01T04:17:46;18.50;86.90
39189;DHT22;24915;50.858;4.376;2022-09-01T04:20:30;18.50;87.00
39189;DHT22;24915;50.858;4.376;2022-09-01T04:23:06;18.40;86.70
39189;DHT22;24915;50.858;4.376;2022-09-01T04:25:36;18.40;86.90
39189;DHT22;24915;50.858;4.376;2022-09-01T04:28:04;18.40;87.20
39189;DHT22;24915;50.858;4.376;2022-09-01T04:30:38;18.30;87.10
39189;DHT22;24915;50.858;4.376;2022-09-01T04:33:08;18.30;86.90
39189;DHT22;24915;50.858;4.376;2022-09-01T04:35:40;18.30;87.50
39189;DHT22;24915;50.858;4.376;2022-09-01T04:38:06;18.30;87.20
39189;DHT22;24915;50.858;4.376;2022-09-01T04:40:37;18.20;87.10
39189;DHT22;24915;50.858;4.376;2022-09-01T04:43:04;18.10;88.30
39189;DHT22;24915;50.858;4.376;2022-09-01T04:45:30;18.00;88.10
39189;DHT22;24915;50.858;4.376;2022-09-01T04:47:56;18.00;88.00
39189;DHT22;24915;50.858;4.376;2022-09-01T04:50:24;17.90;88.10
39189;DHT22;24915;50.858;4.376;2022-09-01T04:52:50;17.90;88.70
39189;DHT22;24915;50.858;4.376;2022-09-01T04:55:16;17.80;88.90
39189;DHT22;24915;50.858;4.376;2022-09-01T04:57:46;17.90;88.90
39189;DHT22;24915;50.858;4.376;2022-09-01T05:00:19;18.00;88.40
39189;DHT22;24915;50.858;4.376;2022-09-01T05:02:49;17.90;88.80
39189;DHT22;24915;50.858;4.376;2022-09-01T05:05:20;17.80;89.00
39189;DHT22;24915;50.858;4.376;2022-09-01T05:07:47;17.80;89.10
39189;DHT22;24915;50.858;4.376;2022-09-01T05:10:16;17.90;89.00
39189;DHT22;24915;50.858;4.376;2022-09-01T05:12:43;17.90;88.90
39189;DHT22;24915;50.858;4.376;2022-09-01T05:15:12;17.90;88.80
39189;DHT22;24915;50.858;4.376;2022-09-01T05:17:38;17.90;89.10
39189;DHT22;24915;50.858;4.376;2022-09-01T05:20:05;17.80;89.20
39189;DHT22;24915;50.858;4.376;2022-09-01T05:22:31;17.90;89.00
39189;DHT22;24915;50.858;4.376;2022-09-01T05:24:58;17.90;89.10
39189;DHT22;24915;50.858;4.376;2022-09-01T05:27:37;18.00;89.30
39189;DHT22;24915;50.858;4.376;2022-09-01T05:30:05;18.00;89.70
39189;DHT22;24915;50.858;4.376;2022-09-01T05:32:34;18.00;89.10
39189;DHT22;24915;50.858;4.376;2022-09-01T05:35:02;18.10;88.90
39189;DHT22;24915;50.858;4.376;2022-09-01T05:37:36;18.10;89.00
39189;DHT22;24915;50.858;4.376;2022-09-01T05:40:07;18.20;88.90
39189;DHT22;24915;50.858;4.376;2022-09-01T05:42:34;18.20;88.40
39189;DHT22;24915;50.858;4.376;2022-09-01T05:45:05;18.20;88.70
39189;DHT22;24915;50.858;4.376;2022-09-01T05:47:31;18.30;88.50
39189;DHT22;24915;50.858;4.376;2022-09-01T05:50:02;18.40;88.40
39189;DHT22;24915;50.858;4.376;2022-09-01T05:52:32;18.40;88.20
39189;DHT22;24915;50.858;4.376;2022-09-01T05:54:58;18.50;88.90
39189;DHT22;24915;50.858;4.376;2022-09-01T05:57:24;18.60;88.10
39189;DHT22;24915;50.858;4.376;2022-09-01T05:59:50;18.60;87.70
39189;DHT22;24915;50.858;4.376;2022-09-01T06:02:22;18.70;87.80
39189;DHT22;24915;50.858;4.376;2022-09-01T06:04:48;18.80;87.40
39189;DHT22;24915;50.858;4.376;2022-09-01T06:07:15;19.00;87.30
39189;DHT22;24915;50.858;4.376;2022-09-01T06:09:44;19.10;86.50
39189;DHT22;24915;50.858;4.376;2022-09-01T06:12:11;19.10;86.50
39189;DHT22;24915;50.858;4.376;2022-09-01T06:14:42;19.20;86.00
39189;DHT22;24915;50.858;4.376;2022-09-01T06:17:09;19.30;86.30
39189;DHT22;24915;50.858;4.376;2022-09-01T06:19:36;19.30;86.10
39189;DHT22;24915;50.858;4.376;2022-09-01T06:22:04;19.40;86.30
39189;DHT22;24915;50.858;4.376;2022-09-01T06:24:30;19.50;85.50
39189;DHT22;24915;50.858;4.376;2022-09-01T06:26:56;19.50;86.70
39189;DHT22;24915;50.858;4.376;2022-09-01T06:29:22;19.50;85.20
39189;DHT22;24915;50.858;4.376;2022-09-01T06:31:48;19.70;85.40
39189;DHT22;24915;50.858;4.376;2022-09-01T06:34:17;19.80;85.40
39189;DHT22;24915;50.858;4.376;2022-09-01T06:36:45;20.00;85.00
39189;DHT22;24915;50.858;4.376;2022-09-01T06:39:12;20.10;84.50
39189;DHT22;24915;50.858;4.376;2022-09-01T06:41:45;20.30;84.20
39189;DHT22;24915;50.858;4.376;2022-09-01T06:44:17;20.40;84.00
39189;DHT22;24915;50.858;4.376;2022-09-01T06:46:50;20.50;84.00
39189;DHT22;24915;50.858;4.376;2022-09-01T06:49:16;20.60;83.90
39189;DHT22;24915;50.858;4.376;2022-09-01T06:51:42;20.70;83.90
39189;DHT22;24915;50.858;4.376;2022-09-01T06:54:09;20.90;83.70
39189;DHT22;24915;50.858;4.376;2022-09-01T06:56:38;21.00;83.20
39189;DHT22;24915;50.858;4.376;2022-09-01T06:59:04;21.20;82.90
39189;DHT22;24915;50.858;4.376;2022-09-01T07:01:33;21.30;82.60
39189;DHT22;24915;50.858;4.376;2022-09-01T07:04:00;21.30;82.10
39189;DHT22;24915;50.858;4.376;2022-09-01T07:06:26;21.40;82.70
39189;DHT22;24915;50.858;4.376;2022-09-01T07:08:56;21.40;82.90
39189;DHT22;24915;50.858;4.376;2022-09-01T07:11:31;21.60;82.50
39189;DHT22;24915;50.858;4.376;2022-09-01T07:13:59;21.80;82.10
39189;DHT22;24915;50.858;4.376;2022-09-01T07:16:28;21.90;81.60
39189;DHT22;24915;50.858;4.376;2022-09-01T07:18:56;22.00;81.40
39189;DHT22;24915;50.858;4.376;2022-09-01T07:21:23;22.00;81.50
39189;DHT22;24915;50.858;4.376;2022-09-01T07:23:50;22.10;81.40
39189;DHT22;24915;50.858;4.376;2022-09-01T07:26:16;22.10;81.50
39189;DHT22;24915;50.858;4.376;2022-09-01T07:28:47;22.20;81.20
39189;DHT22;24915;50.858;4.376;2022-09-01T07:31:19;22.40;80.90
39189;DHT22;24915;50.858;4.376;2022-09-01T07:33:48;22.60;80.20
39189;DHT22;24915;50.858;4.376;2022-09-01T07:36:16;22.70;80.10
39189;DHT22;24915;50.858;4.376;2022-09-01T07:38:42;22.90;79.90
39189;DHT22;24915;50.858;4.376;2022-09-01T07:41:09;23.00;79.80
39189;DHT22;24915;50.858;4.376;2022-09-01T07:43:38;23.20;78.70
39189;DHT22;24915;50.858;4.376;2022-09-01T07:46:04;23.20;78.70
39189;DHT22;24915;50.858;4.376;2022-09-01T07:48:31;23.30;78.40
39189;DHT22;24915;50.858;4.376;2022-09-01T07:50:56;23.40;78.80
39189;DHT22;24915;50.858;4.376;2022-09-01T07:53:30;23.40;78.90
39189;DHT22;24915;50.858;4.376;2022-09-01T07:56:07;23.50;78.70
39189;DHT22;24915;50.858;4.376;2022-09-01T07:58:34;23.80;78.10
39189;DHT22;24915;50.858;4.376;2022-09-01T08:01:05;23.90;77.60
39189;DHT22;24915;50.858;4.376;2022-09-01T08:03:30;24.10;77.40
39189;DHT22;24915;50.858;4.376;2022-09-01T08:06:05;24.20;77.30
39189;DHT22;24915;50.858;4.376;2022-09-01T08:08:31;24.40;76.80
39189;DHT22;24915;50.858;4.376;2022-09-01T08:10:57;24.60;76.10
39189;DHT22;24915;50.858;4.376;2022-09-01T08:13:22;24.60;75.30
39189;DHT22;24915;50.858;4.376;2022-09-01T08:15:48;24.80;75.00
39189;DHT22;24915;50.858;4.376;2022-09-01T08:18:14;24.80;74.10
39189;DHT22;24915;50.858;4.376;2022-09-01T08:20:41;24.80;75.00
39189;DHT22;24915;50.858;4.376;2022-09-01T08:23:15;24.80;75.10
39189;DHT22;24915;50.858;4.376;2022-09-01T08:25:42;24.90;75.00
39189;DHT22;24915;50.858;4.376;2022-09-01T08:28:09;25.10;74.80
39189;DHT22;24915;50.858;4.376;2022-09-01T08:30:38;25.20;74.10
39189;DHT22;24915;50.858;4.376;2022-09-01T08:33:04;25.30;74.10
39189;DHT22;24915;50.858;4.376;2022-09-01T08:35:30;25.40;73.70
39189;DHT22;24915;50.858;4.376;2022-09-01T08:37:56;25.60;72.90
39189;DHT22;24915;50.858;4.376;2022-09-01T08:40:23;25.70;72.20
39189;DHT22;24915;50.858;4.376;2022-09-01T08:45:26;25.80;71.50
39189;DHT22;24915;50.858;4.376;2022-09-01T08:47:57;26.00;72.30
39189;DHT22;24915;50.858;4.376;2022-09-01T08:50:24;26.20;71.70
39189;DHT22;24915;50.858;4.376;2022-09-01T08:52:56;26.20;71.00
39189;DHT22;24915;50.858;4.376;2022-09-01T08:55:56;26.20;70.70
39189;DHT22;24915;50.858;4.376;2022-09-01T08:58:22;26.00;71.10
39189;DHT22;24915;50.858;4.376;2022-09-01T09:00:58;26.10;71.40
39189;DHT22;24915;50.858;4.376;2022-09-01T09:03:36;26.30;70.90
39189;DHT22;24915;50.858;4.376;2022-09-01T09:08:53;26.50;70.50
39189;DHT22;24915;50.858;4.376;2022-09-01T09:11:48;26.80;69.80
39189;DHT22;24915;50.858;4.376;2022-09-01T09:16:56;27.20;68.60
39189;DHT22;24915;50.858;4.376;2022-09-01T09:19:36;27.40;68.40
39189;DHT22;24915;50.858;4.376;2022-09-01T09:22:10;27.60;67.40
39189;DHT22;24915;50.858;4.376;2022-09-01T09:29:51;28.00;66.70
39189;DHT22;24915;50.858;4.376;2022-09-01T09:32:18;28.10;66.60
39189;DHT22;24915;50.858;4.376;2022-09-01T09:34:44;28.20;65.90
39189;DHT22;24915;50.858;4.376;2022-09-01T09:37:29;28.50;65.00
39189;DHT22;24915;50.858;4.376;2022-09-01T09:42:37;28.30;64.50
39189;DHT22;24915;50.858;4.376;2022-09-01T09:45:09;28.10;64.80
39189;DHT22;24915;50.858;4.376;2022-09-01T09:47:40;28.20;66.10
39189;DHT22;24915;50.858;4.376;2022-09-01T09:50:30;28.20;65.30
39189;DHT22;24915;50.858;4.376;2022-09-01T09:53:15;28.40;65.10
39189;DHT22;24915;50.858;4.376;2022-09-01T09:56:15;28.40;63.40
39189;DHT22;24915;50.858;4.376;2022-09-01T09:58:44;28.00;63.50
39189;DHT22;24915;50.858;4.376;2022-09-01T10:03:43;28.30;62.20
39189;DHT22;24915;50.858;4.376;2022-09-01T10:06:13;28.30;60.50
39189;DHT22;24915;50.858;4.376;2022-09-01T10:08:42;28.40;61.30
39189;DHT22;24915;50.858;4.376;2022-09-01T10:11:38;28.80;61.10
39189;DHT22;24915;50.858;4.376;2022-09-01T10:14:11;29.20;58.60
39189;DHT22;24915;50.858;4.376;2022-09-01T10:16:40;29.30;58.40
39189;DHT22;24915;50.858;4.376;2022-09-01T10:19:11;29.50;57.30
39189;DHT22;24915;50.858;4.376;2022-09-01T10:21:39;29.50;56.70
39189;DHT22;24915;50.858;4.376;2022-09-01T10:24:28;29.60;57.20
39189;DHT22;24915;50.858;4.376;2022-09-01T10:27:00;29.40;56.10
39189;DHT22;24915;50.858;4.376;2022-09-01T10:29:36;29.30;56.80
39189;DHT22;24915;50.858;4.376;2022-09-01T10:32:07;29.60;56.50
39189;DHT22;24915;50.858;4.376;2022-09-01T10:34:36;29.50;56.10
39189;DHT22;24915;50.858;4.376;2022-09-01T10:37:05;29.30;55.70
39189;DHT22;24915;50.858;4.376;2022-09-01T10:39:31;29.00;55.90
39189;DHT22;24915;50.858;4.376;2022-09-01T10:41:58;28.80;55.90
39189;DHT22;24915;50.858;4.376;2022-09-01T10:44:34;28.30;57.30
39189;DHT22;24915;50.858;4.376;2022-09-01T10:47:09;28.40;56.70
39189;DHT22;24915;50.858;4.376;2022-09-01T10:52:10;28.50;56.70
39189;DHT22;24915;50.858;4.376;2022-09-01T10:57:25;29.20;55.50
39189;DHT22;24915;50.858;4.376;2022-09-01T11:13:54;31.10;53.90
39189;DHT22;24915;50.858;4.376;2022-09-01T11:18:55;31.30;52.50
39189;DHT22;24915;50.858;4.376;2022-09-01T11:21:40;31.30;52.80
39189;DHT22;24915;50.858;4.376;2022-09-01T11:27:07;31.60;51.50
39189;DHT22;24915;50.858;4.376;2022-09-01T11:30:06;31.20;51.60
39189;DHT22;24915;50.858;4.376;2022-09-01T11:32:36;31.30;52.70
39189;DHT22;24915;50.858;4.376;2022-09-01T11:35:04;31.50;51.30
39189;DHT22;24915;50.858;4.376;2022-09-01T11:37:32;31.50;51.80
39189;DHT22;24915;50.858;4.376;2022-09-01T11:39:59;31.80;51.60
39189;DHT22;24915;50.858;4.376;2022-09-01T11:42:33;32.10;51.80
39189;DHT22;24915;50.858;4.376;2022-09-01T11:45:17;32.50;51.20
39189;DHT22;24915;50.858;4.376;2022-09-01T11:47:46;32.80;51.00
39189;DHT22;24915;50.858;4.376;2022-09-01T11:50:25;33.00;50.50
39189;DHT22;24915;50.858;4.376;2022-09-01T11:52:58;33.50;50.30
39189;DHT22;24915;50.858;4.376;2022-09-01T11:55:44;33.70;48.80
39189;DHT22;24915;50.858;4.376;2022-09-01T12:00:56;34.00;48.00
39189;DHT22;24915;50.858;4.376;2022-09-01T12:03:28;33.90;48.10
39189;DHT22;24915;50.858;4.376;2022-09-01T12:06:02;33.80;48.10
39189;DHT22;24915;50.858;4.376;2022-09-01T12:08:31;33.90;48.70
39189;DHT22;24915;50.858;4.376;2022-09-01T12:11:10;33.70;48.20
39189;DHT22;24915;50.858;4.376;2022-09-01T12:13:39;33.70;48.60
39189;DHT22;24915;50.858;4.376;2022-09-01T12:16:07;33.80;48.40
39189;DHT22;24915;50.858;4.376;2022-09-01T12:18:36;34.20;49.00
39189;DHT22;24915;50.858;4.376;2022-09-01T12:21:06;34.40;47.20
39189;DHT22;24915;50.858;4.376;2022-09-01T12:23:39;34.60;47.30
39189;DHT22;24915;50.858;4.376;2022-09-01T12:26:16;34.50;47.10
39189;DHT22;24915;50.858;4.376;2022-09-01T12:28:43;34.60;47.40
39189;DHT22;24915;50.858;4.376;2022-09-01T12:31:19;34.70;48.00
39189;DHT22;24915;50.858;4.376;2022-09-01T12:33:47;34.80;47.30
39189;DHT22;24915;50.858;4.376;2022-09-01T12:36:29;34.80;47.30
39189;DHT22;24915;50.858;4.376;2022-09-01T12:41:45;34.30;46.90
39189;DHT22;24915;50.858;4.376;2022-09-01T12:44:32;34.00;47.10
39189;DHT22;24915;50.858;4.376;2022-09-01T12:47:02;34.00;48.30
39189;DHT22;24915;50.858;4.376;2022-09-01T12:49:41;34.40;48.40
39189;DHT22;24915;50.858;4.376;2022-09-01T12:57:38;34.60;47.70
39189;DHT22;24915;50.858;4.376;2022-09-01T13:05:40;35.00;47.30
39189;DHT22;24915;50.858;4.376;2022-09-01T13:08:08;35.10;46.10
39189;DHT22;24915;50.858;4.376;2022-09-01T13:10:52;35.10;46.70
39189;DHT22;24915;50.858;4.376;2022-09-01T13:13:20;35.10;46.20
39189;DHT22;24915;50.858;4.376;2022-09-01T13:15:49;34.90;46.40
39189;DHT22;24915;50.858;4.376;2022-09-01T13:18:19;34.80;46.70
39189;DHT22;24915;50.858;4.376;2022-09-01T13:20:46;34.40;46.40
39189;DHT22;24915;50.858;4.376;2022-09-01T13:23:12;33.80;46.80
39189;DHT22;24915;50.858;4.376;2022-09-01T13:25:39;33.40;48.00
39189;DHT22;24915;50.858;4.376;2022-09-01T13:28:06;33.30;47.60
39189;DHT22;24915;50.858;4.376;2022-09-01T13:30:33;33.30;48.30
39189;DHT22;24915;50.858;4.376;2022-09-01T13:32:59;33.30;47.00
39189;DHT22;24915;50.858;4.376;2022-09-01T13:35:25;33.30;48.10
39189;DHT22;24915;50.858;4.376;2022-09-01T13:37:51;33.60;48.30
39189;DHT22;24915;50.858;4.376;2022-09-01T13:40:19;33.90;48.10
39189;DHT22;24915;50.858;4.376;2022-09-01T13:42:47;34.20;46.80
39189;DHT22;24915;50.858;4.376;2022-09-01T13:45:14;34.50;47.20
39189;DHT22;24915;50.858;4.376;2022-09-01T13:47:43;34.90;47.00
39189;DHT22;24915;50.858;4.376;2022-09-01T13:50:11;35.10;46.10
39189;DHT22;24915;50.858;4.376;2022-09-01T13:52:44;35.10;45.70
39189;DHT22;24915;50.858;4.376;2022-09-01T13:55:13;35.20;44.60
39189;DHT22;24915;50.858;4.376;2022-09-01T13:57:39;34.40;45.50
39189;DHT22;24915;50.858;4.376;2022-09-01T14:00:09;34.30;46.00
39189;DHT22;24915;50.858;4.376;2022-09-01T14:02:36;34.30;46.90
39189;DHT22;24915;50.858;4.376;2022-09-01T14:05:02;34.50;46.90
39189;DHT22;24915;50.858;4.376;2022-09-01T14:07:28;34.60;46.40
39189;DHT22;24915;50.858;4.376;2022-09-01T14:09:55;34.60;46.10
39189;DHT22;24915;50.858;4.376;2022-09-01T14:12:20;34.70;46.20
39189;DHT22;24915;50.858;4.376;2022-09-01T14:14:46;34.70;45.50
39189;DHT22;24915;50.858;4.376;2022-09-01T14:17:12;34.00;45.80
39189;DHT22;24915;50.858;4.376;2022-09-01T14:19:37;33.40;46.40
39189;DHT22;24915;50.858;4.376;2022-09-01T14:22:03;32.70;47.50
39189;DHT22;24915;50.858;4.376;2022-09-01T14:24:32;32.50;48.00
39189;DHT22;24915;50.858;4.376;2022-09-01T14:26:58;32.80;48.10
39189;DHT22;24915;50.858;4.376;2022-09-01T14:29:24;33.30;46.80
39189;DHT22;24915;50.858;4.376;2022-09-01T14:31:50;33.70;46.40
39189;DHT22;24915;50.858;4.376;2022-09-01T14:34:16;34.00;45.00
39189;DHT22;24915;50.858;4.376;2022-09-01T14:36:43;34.10;45.50
39189;DHT22;24915;50.858;4.376;2022-09-01T14:39:09;34.30;45.10
39189;DHT22;24915;50.858;4.376;2022-09-01T14:41:35;34.80;44.90
39189;DHT22;24915;50.858;4.376;2022-09-01T14:44:01;35.60;45.30
39189;DHT22;24915;50.858;4.376;2022-09-01T14:46:28;36.40;43.60
39189;DHT22;24915;50.858;4.376;2022-09-01T14:48:55;37.00;42.60
39189;DHT22;24915;50.858;4.376;2022-09-01T14:51:26;37.20;42.60
39189;DHT22;24915;50.858;4.376;2022-09-01T14:53:53;37.40;42.40
39189;DHT22;24915;50.858;4.376;2022-09-01T14:56:19;37.30;43.20
39189;DHT22;24915;50.858;4.376;2022-09-01T14:58:46;36.70;42.10
39189;DHT22;24915;50.858;4.376;2022-09-01T15:01:15;36.00;42.40
39189;DHT22;24915;50.858;4.376;2022-09-01T15:03:42;35.20;43.00
39189;DHT22;24915;50.858;4.376;2022-09-01T15:06:11;34.30;43.40
39189;DHT22;24915;50.858;4.376;2022-09-01T15:08:38;33.50;44.70
39189;DHT22;24915;50.858;4.376;2022-09-01T15:11:22;33.40;46.10
39189;DHT22;24915;50.858;4.376;2022-09-01T15:13:48;33.40;45.70
39189;DHT22;24915;50.858;4.376;2022-09-01T15:16:19;33.30;45.70
39189;DHT22;24915;50.858;4.376;2022-09-01T15:18:46;33.00;45.20
39189;DHT22;24915;50.858;4.376;2022-09-01T15:21:26;32.70;46.90
39189;DHT22;24915;50.858;4.376;2022-09-01T15:23:53;32.70;47.60
39189;DHT22;24915;50.858;4.376;2022-09-01T15:26:19;32.80;47.10
39189;DHT22;24915;50.858;4.376;2022-09-01T15:28:46;32.70;46.80
39189;DHT22;24915;50.858;4.376;2022-09-01T15:31:14;32.60;47.00
39189;DHT22;24915;50.858;4.376;2022-09-01T15:33:40;32.30;47.00
39189;DHT22;24915;50.858;4.376;2022-09-01T15:36:06;32.00;47.30
39189;DHT22;24915;50.858;4.376;2022-09-01T15:38:33;31.80;47.20
39189;DHT22;24915;50.858;4.376;2022-09-01T15:40:59;31.50;47.50
39189;DHT22;24915;50.858;4.376;2022-09-01T15:43:29;31.20;47.50
39189;DHT22;24915;50.858;4.376;2022-09-01T15:45:56;31.00;47.50
39189;DHT22;24915;50.858;4.376;2022-09-01T15:48:23;30.80;47.60
39189;DHT22;24915;50.858;4.376;2022-09-01T15:50:49;30.60;47.90
39189;DHT22;24915;50.858;4.376;2022-09-01T15:53:14;30.30;47.90
39189;DHT22;24915;50.858;4.376;2022-09-01T15:55:42;30.10;48.00
39189;DHT22;24915;50.858;4.376;2022-09-01T15:58:10;29.80;48.50
39189;DHT22;24915;50.858;4.376;2022-09-01T16:00:38;29.60;48.50
39189;DHT22;24915;50.858;4.376;2022-09-01T16:03:04;29.50;48.90
39189;DHT22;24915;50.858;4.376;2022-09-01T16:05:31;29.30;48.80
39189;DHT22;24915;50.858;4.376;2022-09-01T16:07:57;29.10;49.40
39189;DHT22;24915;50.858;4.376;2022-09-01T16:10:26;29.00;49.60
39189;DHT22;24915;50.858;4.376;2022-09-01T16:12:54;28.90;49.50
39189;DHT22;24915;50.858;4.376;2022-09-01T16:15:23;28.70;49.80
39189;DHT22;24915;50.858;4.376;2022-09-01T16:18:11;28.60;49.70
39189;DHT22;24915;50.858;4.376;2022-09-01T16:21:11;28.50;49.70
39189;DHT22;24915;50.858;4.376;2022-09-01T16:23:46;28.40;49.60
39189;DHT22;24915;50.858;4.376;2022-09-01T16:26:14;28.20;50.00
39189;DHT22;24915;50.858;4.376;2022-09-01T16:28:47;28.10;50.20
39189;DHT22;24915;50.858;4.376;2022-09-01T16:31:18;28.00;50.50
39189;DHT22;24915;50.858;4.376;2022-09-01T16:33:52;27.90;50.40
39189;DHT22;24915;50.858;4.376;2022-09-01T16:39:27;27.70;51.00
39189;DHT22;24915;50.858;4.376;2022-09-01T16:45:00;27.50;51.30
39189;DHT22;24915;50.858;4.376;2022-09-01T16:50:39;27.40;51.80
39189;DHT22;24915;50.858;4.376;2022-09-01T17:02:31;27.00;52.30
39189;DHT22;24915;50.858;4.376;2022-09-01T17:07:17;26.80;52.90
39189;DHT22;24915;50.858;4.376;2022-09-01T17:12:44;26.70;53.00
39189;DHT22;24915;50.858;4.376;2022-09-01T17:15:17;26.60;52.80
39189;DHT22;24915;50.858;4.376;2022-09-01T17:17:52;26.60;52.90